Time;durP1;ratioP1;P1;durP2;ratioP2;P2;SDS_P1;SDS_P2;PMS_P1;PMS_P2;Temp;Humidity;BMP_temperature;BMP_pressure;BME280_temperature;BME280_humidity;BME280_pressure;Samples;Min_cycle;Max_cycle;Signal;HPM_P1;HPM_P2
2021/03/18 00:02:01;;;;;;;;;;;;;;;-1.60;71.59;101578.34;1676148;84;20308;-76
2021/03/18 00:04:46;;;;;;;;;;;;;;;-1.64;71.68;101577.31;1654321;84;20362;-75
2021/03/18 00:07:30;;;;;;;;;;;;;;;-1.60;71.76;101584.67;1614680;87;20355;-74
2021/03/18 00:10:16;;;;;;;;;;;;;;;-1.61;71.72;101586.34;1617297;87;20357;-74
2021/03/18 00:13:00;;;;;;;;;;;;;;;-1.65;71.94;101588.65;1654574;85;20317;-75
2021/03/18 00:15:45;;;;;;;;;;;;;;;-1.60;72.22;101593.55;1659709;85;20351;-76
2021/03/18 00:18:32;;;;;;;;;;;;;;;-1.57;72.17;101586.95;1648310;85;20326;-74
2021/03/18 00:21:20;;;;;;;;;;;;;;;-1.52;72.16;101590.95;1645389;85;20338;-74
2021/03/18 00:24:05;;;;;;;;;;;;;;;-1.51;72.15;101586.35;1666856;85;20956;-75
2021/03/18 00:26:50;;;;;;;;;;;;;;;-1.48;72.29;101594.98;1651501;85;20631;-74
2021/03/18 00:29:35;;;;;;;;;;;;;;;-1.41;72.36;101583.46;1671229;85;20303;-76
2021/03/18 00:32:19;;;;;;;;;;;;;;;-1.39;72.24;101580.20;1659656;85;20582;-74
2021/03/18 00:35:06;;;;;;;;;;;;;;;-1.37;72.29;101584.95;1651128;85;20299;-74
2021/03/18 00:37:52;;;;;;;;;;;;;;;-1.33;72.26;101579.63;1646480;85;20310;-74
2021/03/18 00:40:40;;;;;;;;;;;;;;;-1.29;72.25;101580.64;1614322;87;20319;-74
2021/03/18 00:43:25;;;;;;;;;;;;;;;-1.26;72.27;101580.39;1660768;85;20550;-74
2021/03/18 00:46:09;;;;;;;;;;;;;;;-1.25;72.24;101582.13;1674544;85;20621;-74
2021/03/18 00:48:54;;;;;;;;;;;;;;;-1.25;72.18;101579.59;1647096;85;20298;-75
2021/03/18 00:51:38;;;;;;;;;;;;;;;-1.22;72.25;101577.59;1660148;85;20336;-75
2021/03/18 00:54:23;;;;;;;;;;;;;;;-1.22;72.27;101569.98;1658416;85;20312;-75
2021/03/18 00:57:07;;;;;;;;;;;;;;;-1.23;72.25;101570.78;1661318;85;20665;-76
2021/03/18 00:59:52;;;;;;;;;;;;;;;-1.24;72.39;101576.66;1651183;85;20327;-75
2021/03/18 01:02:36;;;;;;;;;;;;;;;-1.26;72.47;101572.77;1634011;85;20306;-75
2021/03/18 01:05:30;;;;;;;;;;;;;;;-1.23;72.53;101575.86;1651477;83;20288;-75
2021/03/18 01:08:16;;;;;;;;;;;;;;;-1.21;72.62;101567.52;1655509;85;20563;-75
2021/03/18 01:11:13;;;;;;;;;;;;;;;-1.17;72.67;101557.11;1632585;85;20294;-75
2021/03/18 01:13:59;;;;;;;;;;;;;;;-1.18;72.60;101552.84;1657003;85;20299;-75
2021/03/18 01:16:50;;;;;;;;;;;;;;;-1.14;72.67;101547.10;1647601;85;20293;-75
2021/03/18 01:19:34;;;;;;;;;;;;;;;-1.12;72.68;101536.62;1620305;87;20340;-75
2021/03/18 01:22:19;;;;;;;;;;;;;;;-1.08;72.63;101534.70;1653237;85;20287;-75
2021/03/18 01:25:05;;;;;;;;;;;;;;;-1.07;72.61;101532.63;1609894;87;20305;-75
2021/03/18 01:27:49;;;;;;;;;;;;;;;-1.04;72.65;101537.84;1625581;87;20318;-75
2021/03/18 01:30:33;;;;;;;;;;;;;;;-1.06;72.62;101549.59;1652364;85;20315;-75
2021/03/18 01:33:18;;;;;;;;;;;;;;;-1.14;72.73;101545.44;1654279;85;20303;-75
2021/03/18 01:36:07;;;;;;;;;;;;;;;-1.13;72.87;101546.30;1612966;87;20297;-76
2021/03/18 01:38:51;;;;;;;;;;;;;;;-1.11;72.95;101549.38;1599962;87;20593;-75
2021/03/18 01:41:36;;;;;;;;;;;;;;;-1.08;73.06;101548.66;1617282;87;20349;-76
2021/03/18 01:44:20;;;;;;;;;;;;;;;-1.04;73.17;101549.27;1603309;87;20301;-76
2021/03/18 01:47:05;;;;;;;;;;;;;;;-1.01;73.18;101548.11;1648339;85;20315;-76
2021/03/18 01:49:50;;;;;;;;;;;;;;;-0.95;73.25;101552.59;1662145;85;20287;-74
2021/03/18 01:52:35;;;;;;;;;;;;;;;-0.91;73.26;101540.51;1605108;87;20519;-75
2021/03/18 01:55:26;;;;;;;;;;;;;;;-0.87;73.21;101541.12;1620230;87;20649;-75
2021/03/18 01:58:11;;;;;;;;;;;;;;;-0.84;73.31;101541.25;1608147;87;20851;-75
2021/03/18 02:00:59;;;;;;;;;;;;;;;-0.79;73.34;101522.89;1619766;87;20357;-75
2021/03/18 02:03:43;;;;;;;;;;;;;;;-0.71;73.39;101524.09;1662932;85;20292;-75
2021/03/18 02:06:29;;;;;;;;;;;;;;;-0.63;73.32;101521.89;1663337;85;20307;-76
2021/03/18 02:09:13;;;;;;;;;;;;;;;-0.58;73.34;101522.09;1614967;87;20616;-76
2021/03/18 02:11:58;;;;;;;;;;;;;;;-0.55;73.25;101524.36;1612362;87;20309;-76
2021/03/18 02:14:42;;;;;;;;;;;;;;;-0.57;73.20;101528.91;1624316;87;20409;-75
2021/03/18 02:17:30;;;;;;;;;;;;;;;-0.63;73.21;101529.91;1665367;84;20605;-75
2021/03/18 02:20:40;;;;;;;;;;;;;;;-0.66;73.30;101530.64;1609383;87;20316;-75
2021/03/18 02:23:47;;;;;;;;;;;;;;;-0.68;73.37;101533.12;1651535;85;20496;-75
2021/03/18 02:26:58;;;;;;;;;;;;;;;-0.68;73.43;101531.84;1657382;85;20329;-75
2021/03/18 02:30:03;;;;;;;;;;;;;;;-0.65;73.53;101531.52;1654431;85;20299;-75
2021/03/18 02:33:08;;;;;;;;;;;;;;;-0.61;73.59;101535.53;1639545;87;20320;-76
2021/03/18 02:35:59;;;;;;;;;;;;;;;-0.59;73.55;101530.11;1642054;85;20321;-76
2021/03/18 02:38:59;;;;;;;;;;;;;;;-0.60;73.53;101528.37;1629599;87;20202;-75
2021/03/18 02:41:47;;;;;;;;;;;;;;;-0.60;73.55;101530.05;1627816;87;20337;-76
2021/03/18 02:44:33;;;;;;;;;;;;;;;-0.60;73.59;101527.50;1623083;87;20273;-76
2021/03/18 02:47:20;;;;;;;;;;;;;;;-0.57;73.65;101535.27;1675611;85;20285;-76
2021/03/18 02:50:07;;;;;;;;;;;;;;;-0.54;73.69;101533.72;1630093;87;20265;-76
2021/03/18 02:52:52;;;;;;;;;;;;;;;-0.50;73.62;101529.21;1645952;85;20290;-76
2021/03/18 02:55:38;;;;;;;;;;;;;;;-0.47;73.63;101528.08;1607615;87;20269;-76
2021/03/18 02:58:26;;;;;;;;;;;;;;;-0.46;73.64;101518.37;1602836;87;20294;-76
2021/03/18 03:01:11;;;;;;;;;;;;;;;-0.44;73.64;101507.02;1655466;85;20248;-75
2021/03/18 03:03:56;;;;;;;;;;;;;;;-0.43;73.67;101514.70;1605559;87;20490;-75
2021/03/18 03:06:41;;;;;;;;;;;;;;;-0.42;73.60;101520.66;1610628;86;20280;-75
2021/03/18 03:09:26;;;;;;;;;;;;;;;-0.43;73.69;101516.38;1630364;86;20222;-75
2021/03/18 03:12:11;;;;;;;;;;;;;;;-0.42;73.70;101515.17;1597767;88;20304;-75
2021/03/18 03:14:56;;;;;;;;;;;;;;;-0.43;73.68;101519.78;1658658;85;20533;-75
2021/03/18 03:17:42;;;;;;;;;;;;;;;-0.42;73.69;101525.33;1647444;85;20307;-75
2021/03/18 03:20:27;;;;;;;;;;;;;;;-0.42;73.74;101526.60;1660150;85;20293;-75
2021/03/18 03:23:12;;;;;;;;;;;;;;;-0.41;73.73;101518.58;1661308;85;20422;-76
2021/03/18 03:25:59;;;;;;;;;;;;;;;-0.41;73.78;101526.20;1649700;85;20315;-76
2021/03/18 03:28:44;;;;;;;;;;;;;;;-0.42;73.81;101521.52;1661483;85;20397;-76
2021/03/18 03:31:29;;;;;;;;;;;;;;;-0.40;73.80;101522.45;1637563;85;20284;-76
2021/03/18 03:34:14;;;;;;;;;;;;;;;-0.38;73.86;101519.58;1666405;85;20618;-76
2021/03/18 03:36:59;;;;;;;;;;;;;;;-0.39;73.85;101528.00;1652723;85;20323;-76
2021/03/18 03:39:43;;;;;;;;;;;;;;;-0.37;73.91;101520.45;1653403;85;20309;-74
2021/03/18 03:42:28;;;;;;;;;;;;;;;-0.35;73.89;101520.11;1659473;85;20302;-76
2021/03/18 03:45:15;;;;;;;;;;;;;;;-0.35;73.85;101529.88;1651111;85;20315;-76
2021/03/18 03:48:00;;;;;;;;;;;;;;;-0.35;73.89;101522.25;1656039;85;20292;-76
2021/03/18 03:50:45;;;;;;;;;;;;;;;-0.34;73.89;101519.30;1662639;85;20315;-76
2021/03/18 03:53:45;;;;;;;;;;;;;;;-0.33;73.94;101522.31;1628429;86;20305;-76
2021/03/18 03:56:36;;;;;;;;;;;;;;;-0.32;73.95;101521.52;1663755;85;20303;-75
2021/03/18 03:59:22;;;;;;;;;;;;;;;-0.32;73.97;101517.70;1657002;85;20540;-76
2021/03/18 04:02:09;;;;;;;;;;;;;;;-0.33;73.88;101523.59;1659991;85;20311;-76
2021/03/18 04:04:54;;;;;;;;;;;;;;;-0.36;74.00;101509.48;1655992;85;20287;-76
2021/03/18 04:07:40;;;;;;;;;;;;;;;-0.36;73.99;101514.16;1671553;85;20388;-76
2021/03/18 04:10:25;;;;;;;;;;;;;;;-0.36;74.09;101502.73;1641177;85;20287;-76
2021/03/18 04:13:11;;;;;;;;;;;;;;;-0.34;74.03;101502.80;1663065;85;20550;-76
2021/03/18 04:15:58;;;;;;;;;;;;;;;-0.32;74.11;101499.05;1589196;87;20320;-76
2021/03/18 04:18:44;;;;;;;;;;;;;;;-0.32;74.10;101497.77;1614177;87;20289;-76
2021/03/18 04:21:32;;;;;;;;;;;;;;;-0.34;74.05;101497.30;1637854;87;20305;-76
2021/03/18 04:24:17;;;;;;;;;;;;;;;-0.36;74.04;101502.73;1614984;87;20555;-76
2021/03/18 04:27:03;;;;;;;;;;;;;;;-0.37;74.14;101503.93;1626057;87;20444;-76
2021/03/18 04:29:47;;;;;;;;;;;;;;;-0.41;74.08;101504.20;1660366;85;20204;-76
2021/03/18 04:32:33;;;;;;;;;;;;;;;-0.43;74.15;101506.21;1655439;85;20299;-76
2021/03/18 04:35:18;;;;;;;;;;;;;;;-0.44;74.17;101507.88;1604824;87;20318;-76
2021/03/18 04:38:04;;;;;;;;;;;;;;;-0.46;74.13;101508.62;1660855;85;20317;-75
2021/03/18 04:40:48;;;;;;;;;;;;;;;-0.48;74.21;101516.17;1650750;85;20276;-75
2021/03/18 04:43:33;;;;;;;;;;;;;;;-0.47;74.22;101513.23;1618903;87;20494;-75
2021/03/18 04:46:18;;;;;;;;;;;;;;;-0.50;74.24;101516.91;1609303;87;20213;-76
2021/03/18 04:49:03;;;;;;;;;;;;;;;-0.50;74.29;101515.23;1619564;87;20286;-76
2021/03/18 04:51:47;;;;;;;;;;;;;;;-0.51;74.27;101519.85;1623394;87;20262;-76
2021/03/18 04:54:31;;;;;;;;;;;;;;;-0.50;74.39;101519.05;1662991;85;20291;-76
2021/03/18 04:57:21;;;;;;;;;;;;;;;-0.47;74.41;101514.50;1612803;87;20274;-76
2021/03/18 05:00:06;;;;;;;;;;;;;;;-0.47;74.43;101509.02;1609753;87;20283;-76
2021/03/18 05:02:51;;;;;;;;;;;;;;;-0.45;74.40;101510.36;1658725;85;20276;-76
2021/03/18 05:05:37;;;;;;;;;;;;;;;-0.43;74.50;101515.97;1616041;87;20482;-76
2021/03/18 05:08:23;;;;;;;;;;;;;;;-0.39;74.51;101513.16;1614624;87;20330;-76
2021/03/18 05:11:09;;;;;;;;;;;;;;;-0.37;74.54;101511.16;1644910;85;20303;-76
2021/03/18 05:13:54;;;;;;;;;;;;;;;-0.38;74.51;101514.90;1650154;85;20311;-76
2021/03/18 05:16:39;;;;;;;;;;;;;;;-0.38;74.58;101515.77;1655111;85;20612;-76
2021/03/18 05:19:24;;;;;;;;;;;;;;;-0.33;74.68;101505.80;1654719;85;20311;-76
2021/03/18 05:22:08;;;;;;;;;;;;;;;-0.27;74.68;101514.09;1612240;87;20298;-76
2021/03/18 05:24:53;;;;;;;;;;;;;;;-0.25;74.67;101509.94;1653946;85;20307;-76
2021/03/18 05:27:39;;;;;;;;;;;;;;;-0.23;74.69;101513.01;1667030;85;20332;-75
2021/03/18 05:30:27;;;;;;;;;;;;;;;-0.22;74.72;101508.39;1660341;85;20295;-75
2021/03/18 05:33:11;;;;;;;;;;;;;;;-0.16;74.82;101495.07;1648844;85;20301;-76
2021/03/18 05:35:56;;;;;;;;;;;;;;;-0.14;74.78;101474.00;1642714;85;20280;-76
2021/03/18 05:38:41;;;;;;;;;;;;;;;-0.14;74.73;101474.40;1661881;85;20275;-75
2021/03/18 05:41:26;;;;;;;;;;;;;;;-0.11;74.84;101477.06;1656702;85;20337;-76
2021/03/18 05:44:11;;;;;;;;;;;;;;;-0.06;74.93;101489.16;1652132;85;20291;-76
2021/03/18 05:46:58;;;;;;;;;;;;;;;0.00;74.96;101508.88;1655175;85;20312;-75
2021/03/18 05:49:45;;;;;;;;;;;;;;;0.02;74.88;101502.55;1612801;87;20348;-76
2021/03/18 05:52:30;;;;;;;;;;;;;;;0.03;74.92;101513.19;1660010;85;20505;-76
2021/03/18 05:55:16;;;;;;;;;;;;;;;0.03;74.93;101509.38;1652504;85;20317;-76
2021/03/18 05:58:00;;;;;;;;;;;;;;;0.05;74.98;101512.44;1652126;85;20312;-76
2021/03/18 06:00:45;;;;;;;;;;;;;;;0.09;75.01;101513.03;1612829;87;20306;-76
2021/03/18 06:03:29;;;;;;;;;;;;;;;0.14;75.03;101517.04;1612495;87;21078;-76
2021/03/18 06:06:14;;;;;;;;;;;;;;;0.17;75.02;101519.30;1613714;87;20317;-73
2021/03/18 06:08:59;;;;;;;;;;;;;;;0.19;75.06;101520.23;1615316;87;20413;-76
2021/03/18 06:11:44;;;;;;;;;;;;;;;0.20;75.01;101516.02;1612397;87;20310;-76
2021/03/18 06:14:29;;;;;;;;;;;;;;;0.23;75.10;101513.59;1616721;87;20325;-75
2021/03/18 06:17:16;;;;;;;;;;;;;;;0.27;75.13;101516.33;1617403;87;20561;-73
2021/03/18 06:20:02;;;;;;;;;;;;;;;0.30;75.10;101512.63;1609638;87;20326;-73
2021/03/18 06:22:48;;;;;;;;;;;;;;;0.30;75.08;101516.45;1653317;85;20623;-73
2021/03/18 06:25:37;;;;;;;;;;;;;;;0.34;75.21;101516.16;1611848;87;20318;-74
2021/03/18 06:28:29;;;;;;;;;;;;;;;0.39;75.19;101517.63;1614471;87;20301;-74
2021/03/18 06:31:16;;;;;;;;;;;;;;;0.43;75.19;101517.80;1610494;87;20334;-76
2021/03/18 06:34:01;;;;;;;;;;;;;;;0.49;75.23;101520.99;1615343;87;20426;-75
2021/03/18 06:36:45;;;;;;;;;;;;;;;0.55;75.25;101522.47;1613561;87;20684;-75
2021/03/18 06:39:31;;;;;;;;;;;;;;;0.56;75.21;101525.08;1609277;87;20342;-75
2021/03/18 06:42:16;;;;;;;;;;;;;;;0.59;75.26;101534.51;1613808;87;20250;-76
2021/03/18 06:45:12;;;;;;;;;;;;;;;0.63;75.33;101529.59;1613178;87;20847;-76
2021/03/18 06:48:00;;;;;;;;;;;;;;;0.69;75.33;101529.38;1615272;87;20254;-76
2021/03/18 06:50:46;;;;;;;;;;;;;;;0.72;75.25;101524.41;1621008;87;20234;-76
2021/03/18 06:53:30;;;;;;;;;;;;;;;0.74;75.30;101522.38;1614448;87;20486;-76
2021/03/18 06:56:23;;;;;;;;;;;;;;;0.76;75.28;101524.58;1659886;85;20285;-76
2021/03/18 06:59:29;;;;;;;;;;;;;;;0.80;75.31;101526.43;1614011;87;20255;-76
2021/03/18 07:02:16;;;;;;;;;;;;;;;0.81;75.25;101527.30;1611198;87;20192;-76
2021/03/18 07:05:00;;;;;;;;;;;;;;;0.82;75.39;101524.81;1596447;87;20591;-77
2021/03/18 07:07:47;;;;;;;;;;;;;;;0.85;75.38;101527.47;1648849;85;20281;-77
2021/03/18 07:10:33;;;;;;;;;;;;;;;0.79;75.13;101522.55;1654656;85;20259;-77
2021/03/18 07:13:26;;;;;;;;;;;;;;;0.74;75.31;101522.78;1654910;85;20276;-77
2021/03/18 07:16:11;;;;;;;;;;;;;;;0.79;75.50;101513.64;1652934;85;20176;-76
2021/03/18 07:18:58;;;;;;;;;;;;;;;0.88;75.53;101511.45;1634872;85;20563;-76
2021/03/18 07:21:43;;;;;;;;;;;;;;;0.98;75.61;101502.94;1671541;83;20303;-76
2021/03/18 07:24:36;;;;;;;;;;;;;;;1.09;75.55;101508.80;1622041;87;20285;-76
2021/03/18 07:27:21;;;;;;;;;;;;;;;1.11;75.31;101509.72;1610903;87;20210;-76
2021/03/18 07:30:07;;;;;;;;;;;;;;;1.07;75.46;101511.29;1632914;87;20326;-76
2021/03/18 07:32:53;;;;;;;;;;;;;;;1.15;75.51;101511.57;1618835;87;20564;-77
2021/03/18 07:35:37;;;;;;;;;;;;;;;1.18;75.41;101518.92;1606325;87;20306;-76
2021/03/18 07:38:22;;;;;;;;;;;;;;;1.17;75.33;101513.36;1615699;87;20306;-76
2021/03/18 07:41:12;;;;;;;;;;;;;;;1.20;75.46;101517.30;1617625;87;20298;-76
2021/03/18 07:43:57;;;;;;;;;;;;;;;1.21;75.38;101519.03;1651102;85;20294;-76
2021/03/18 07:46:45;;;;;;;;;;;;;;;1.18;75.44;101512.95;1603465;87;20673;-76
2021/03/18 07:49:42;;;;;;;;;;;;;;;1.20;75.44;101512.61;1612596;87;20301;-75
2021/03/18 07:52:28;;;;;;;;;;;;;;;1.16;75.44;101506.94;1614028;87;20274;-75
2021/03/18 07:55:17;;;;;;;;;;;;;;;1.14;75.40;101511.11;1609217;87;20318;-75
2021/03/18 07:58:02;;;;;;;;;;;;;;;1.09;75.39;101502.03;1612838;87;20309;-75
2021/03/18 08:00:47;;;;;;;;;;;;;;;1.08;75.51;101502.84;1610591;87;20305;-75
2021/03/18 08:03:32;;;;;;;;;;;;;;;1.08;75.61;101494.33;1655131;85;20299;-76
2021/03/18 08:06:20;;;;;;;;;;;;;;;1.14;75.66;101498.37;1611693;87;20310;-76
2021/03/18 08:09:14;;;;;;;;;;;;;;;1.18;75.66;101499.81;1606463;87;20344;-76
2021/03/18 08:11:59;;;;;;;;;;;;;;;1.24;75.71;101496.62;1610485;87;20318;-76
2021/03/18 08:14:43;;;;;;;;;;;;;;;1.25;75.54;101491.98;1615761;86;20301;-76
2021/03/18 08:17:28;;;;;;;;;;;;;;;1.28;75.62;101491.69;1670181;84;20339;-75
2021/03/18 08:20:17;;;;;;;;;;;;;;;1.29;75.72;101488.73;1673443;84;20298;-76
2021/03/18 08:23:22;;;;;;;;;;;;;;;1.33;75.64;101490.58;1668784;84;20965;-76
2021/03/18 08:26:11;;;;;;;;;;;;;;;1.41;75.86;101487.03;1674809;84;20644;-75
2021/03/18 08:28:58;;;;;;;;;;;;;;;1.45;75.64;101497.39;1674063;84;20281;-76
2021/03/18 08:32:05;;;;;;;;;;;;;;;1.47;75.69;101500.85;1674470;84;20279;-76
2021/03/18 08:34:57;;;;;;;;;;;;;;;1.47;75.49;101494.48;1640739;86;20371;-76
2021/03/18 08:37:44;;;;;;;;;;;;;;;1.39;75.48;101496.30;1649551;85;20954;-76
2021/03/18 08:40:29;;;;;;;;;;;;;;;1.33;75.45;101501.64;1672922;84;20230;-76
2021/03/18 08:43:14;;;;;;;;;;;;;;;1.37;75.62;101499.20;1671417;84;20315;-76
2021/03/18 08:45:58;;;;;;;;;;;;;;;1.34;75.46;101496.14;1674571;84;21019;-76
2021/03/18 08:48:46;;;;;;;;;;;;;;;1.30;75.53;101491.34;1674017;84;20583;-76
2021/03/18 08:51:41;;;;;;;;;;;;;;;1.27;75.47;101492.91;1638389;86;20304;-76
2021/03/18 08:57:27;;;;;;;;;;;;;;;1.38;75.78;101489.06;1674146;84;20302;-76
2021/03/18 09:00:17;;;;;;;;;;;;;;;1.46;75.78;101489.33;1675089;84;20303;-76
2021/03/18 09:03:03;;;;;;;;;;;;;;;1.50;75.65;101488.63;1643458;85;20290;-76
2021/03/18 09:05:53;;;;;;;;;;;;;;;1.51;75.73;101481.03;1645484;85;20269;-76
2021/03/18 09:08:37;;;;;;;;;;;;;;;1.57;75.71;101482.89;1671950;84;20267;-76
2021/03/18 09:11:23;;;;;;;;;;;;;;;1.60;75.73;101478.77;1674220;84;20541;-76
2021/03/18 09:14:07;;;;;;;;;;;;;;;1.59;75.58;101482.54;1670499;84;20267;-76
2021/03/18 09:17:09;;;;;;;;;;;;;;;1.58;75.53;101471.88;1649823;83;20263;-76
2021/03/18 09:19:56;;;;;;;;;;;;;;;1.63;75.64;101466.53;1671921;83;20283;-76
2021/03/18 09:22:40;;;;;;;;;;;;;;;1.70;75.74;101461.23;1673171;84;20167;-75
2021/03/18 09:25:26;;;;;;;;;;;;;;;1.80;75.79;101464.14;1673583;84;20283;-76
2021/03/18 09:28:11;;;;;;;;;;;;;;;1.81;75.63;101459.50;1674395;84;20302;-76
2021/03/18 09:30:56;;;;;;;;;;;;;;;1.86;75.56;101467.30;1670746;84;20938;-77
2021/03/18 09:33:43;;;;;;;;;;;;;;;1.83;75.52;101465.52;1667499;84;20358;-76
2021/03/18 09:36:29;;;;;;;;;;;;;;;1.86;75.62;101466.90;1671357;84;20298;-76
2021/03/18 09:39:15;;;;;;;;;;;;;;;1.90;75.65;101463.63;1674837;84;20267;-76
2021/03/18 09:42:02;;;;;;;;;;;;;;;1.93;75.56;101465.41;1669182;84;20323;-77
2021/03/18 09:44:47;;;;;;;;;;;;;;;1.90;75.49;101466.19;1671168;84;20285;-77
2021/03/18 09:47:31;;;;;;;;;;;;;;;1.81;75.43;101460.78;1671309;84;20311;-76
2021/03/18 09:50:16;;;;;;;;;;;;;;;1.74;75.44;101465.62;1669053;84;20413;-76
2021/03/18 09:53:11;;;;;;;;;;;;;;;1.75;75.65;101462.26;1670823;84;20289;-76
2021/03/18 09:56:07;;;;;;;;;;;;;;;1.79;75.62;101457.72;1670589;84;20338;-76
2021/03/18 09:58:53;;;;;;;;;;;;;;;1.84;75.70;101459.61;1671141;84;20425;-76
2021/03/18 10:01:37;;;;;;;;;;;;;;;1.92;75.67;101459.86;1667111;84;20327;-76
2021/03/18 10:04:22;;;;;;;;;;;;;;;1.99;75.75;101459.23;1672607;84;20314;-76
2021/03/18 10:07:07;;;;;;;;;;;;;;;2.04;75.69;101455.16;1670136;84;20306;-76
2021/03/18 10:09:51;;;;;;;;;;;;;;;1.99;75.42;101460.52;1668682;84;20637;-76
2021/03/18 10:12:37;;;;;;;;;;;;;;;1.98;75.49;101458.78;1667143;84;20324;-76
2021/03/18 10:15:24;;;;;;;;;;;;;;;2.06;75.64;101450.10;1670028;84;20311;-77
2021/03/18 10:18:08;;;;;;;;;;;;;;;2.20;75.60;101454.79;1667352;85;20307;-76
2021/03/18 10:20:54;;;;;;;;;;;;;;;2.38;75.66;101450.67;1668270;85;20342;-76
2021/03/18 10:23:39;;;;;;;;;;;;;;;2.52;75.53;101447.26;1668796;85;20274;-76
2021/03/18 10:26:25;;;;;;;;;;;;;;;2.63;75.40;101443.31;1667423;85;20315;-77
2021/03/18 10:29:11;;;;;;;;;;;;;;;2.74;75.36;101444.48;1664800;85;20702;-76
2021/03/18 10:32:00;;;;;;;;;;;;;;;2.85;75.39;101438.41;1687114;83;20386;-76
2021/03/18 10:34:55;;;;;;;;;;;;;;;2.86;74.99;101434.63;1668385;84;20300;-76
2021/03/18 10:37:42;;;;;;;;;;;;;;;2.82;75.15;101431.94;1666609;84;20697;-76
2021/03/18 10:40:29;;;;;;;;;;;;;;;2.76;75.09;101425.38;1667316;85;20351;-76
2021/03/18 10:43:29;;;;;;;;;;;;;;;2.82;75.32;101421.31;1672505;84;20270;-76
2021/03/18 10:46:16;;;;;;;;;;;;;;;2.89;75.23;101418.52;1671412;84;20251;-76
2021/03/18 10:49:06;;;;;;;;;;;;;;;2.91;75.27;101406.25;1668472;84;20162;-77
2021/03/18 10:51:54;;;;;;;;;;;;;;;3.00;75.22;101401.81;1669247;85;20164;-76
2021/03/18 10:54:41;;;;;;;;;;;;;;;3.08;75.17;101402.87;1668368;85;20817;-76
2021/03/18 10:57:26;;;;;;;;;;;;;;;3.21;75.38;101401.48;1667260;84;20299;-76
2021/03/18 11:00:11;;;;;;;;;;;;;;;3.40;75.24;101397.31;1672480;85;20267;-76
2021/03/18 11:03:14;;;;;;;;;;;;;;;3.54;74.92;101401.50;1667483;85;20284;-76
2021/03/18 11:05:58;;;;;;;;;;;;;;;3.72;75.35;101390.41;1669591;84;20283;-76
2021/03/18 11:08:45;;;;;;;;;;;;;;;3.96;75.29;101394.84;1671035;84;20257;-76
2021/03/18 11:11:32;;;;;;;;;;;;;;;4.14;75.16;101385.44;1666571;84;20272;-76
2021/03/18 11:14:16;;;;;;;;;;;;;;;4.32;75.21;101388.80;1667698;84;20268;-76
2021/03/18 11:17:06;;;;;;;;;;;;;;;4.51;75.07;101384.52;1672110;85;20249;-76
2021/03/18 11:19:50;;;;;;;;;;;;;;;4.56;74.77;101384.61;1667109;85;20249;-77
2021/03/18 11:22:35;;;;;;;;;;;;;;;4.59;74.57;101388.11;1668190;85;20247;-77
2021/03/18 11:25:20;;;;;;;;;;;;;;;4.60;74.57;101388.55;1670763;84;20316;-77
2021/03/18 11:28:04;;;;;;;;;;;;;;;4.61;74.48;101381.31;1669720;85;20538;-76
2021/03/18 11:30:49;;;;;;;;;;;;;;;4.60;74.43;101378.72;1649325;84;20271;-76
2021/03/18 11:33:33;;;;;;;;;;;;;;;4.62;74.56;101376.64;1643630;86;20186;-77
2021/03/18 11:36:18;;;;;;;;;;;;;;;4.73;74.68;101373.41;1671532;85;20287;-76
2021/03/18 11:39:03;;;;;;;;;;;;;;;4.90;74.67;101373.31;1671438;85;20629;-76
2021/03/18 11:41:50;;;;;;;;;;;;;;;4.90;74.23;101358.80;1669536;84;20337;-76
2021/03/18 11:44:34;;;;;;;;;;;;;;;4.90;74.23;101356.24;1657917;85;20299;-76
2021/03/18 11:47:19;;;;;;;;;;;;;;;4.94;74.28;101352.04;1668467;84;20311;-76
2021/03/18 11:50:04;;;;;;;;;;;;;;;4.96;74.14;101349.09;1671622;85;20301;-76
2021/03/18 11:52:49;;;;;;;;;;;;;;;5.00;74.31;101350.88;1663740;85;20326;-76
2021/03/18 11:55:34;;;;;;;;;;;;;;;5.13;74.44;101343.86;1668799;85;20330;-76
2021/03/18 11:58:18;;;;;;;;;;;;;;;5.24;74.40;101342.73;1666135;85;20331;-76
2021/03/18 12:01:03;;;;;;;;;;;;;;;5.37;74.24;101329.70;1666921;85;20310;-76
2021/03/18 12:03:50;;;;;;;;;;;;;;;5.43;74.20;101329.38;1671037;85;20300;-76
2021/03/18 12:06:34;;;;;;;;;;;;;;;5.58;74.21;101318.09;1666871;85;20327;-77
2021/03/18 12:09:19;;;;;;;;;;;;;;;5.71;74.21;101320.84;1669739;84;20208;-77
2021/03/18 12:12:05;;;;;;;;;;;;;;;5.74;73.96;101316.59;1674062;84;21169;-77
2021/03/18 12:14:49;;;;;;;;;;;;;;;5.76;74.03;101317.89;1677705;84;20306;-77
2021/03/18 12:17:34;;;;;;;;;;;;;;;5.74;73.91;101316.59;1673216;84;20483;-76
2021/03/18 12:20:21;;;;;;;;;;;;;;;5.68;73.87;101301.14;1671380;84;20362;-76
2021/03/18 12:23:05;;;;;;;;;;;;;;;5.60;73.96;101300.16;1641316;86;20285;-77
2021/03/18 12:25:50;;;;;;;;;;;;;;;5.57;74.00;101296.27;1647427;85;20289;-77
2021/03/18 12:28:35;;;;;;;;;;;;;;;5.55;74.03;101292.39;1646730;85;20312;-77
2021/03/18 12:31:20;;;;;;;;;;;;;;;5.53;73.98;101289.36;1673971;84;20336;-77
2021/03/18 12:34:04;;;;;;;;;;;;;;;5.56;74.04;101283.85;1639792;86;20609;-78
2021/03/18 12:36:50;;;;;;;;;;;;;;;5.57;74.06;101283.02;1644896;85;20989;-77
2021/03/18 12:39:34;;;;;;;;;;;;;;;5.57;73.91;101274.45;1674905;84;20310;-77
2021/03/18 12:42:19;;;;;;;;;;;;;;;5.61;74.07;101273.66;1667127;84;20304;-76
2021/03/18 12:45:09;;;;;;;;;;;;;;;5.61;73.84;101273.66;1676088;84;20308;-76
2021/03/18 12:47:54;;;;;;;;;;;;;;;5.66;73.95;101275.88;1671705;84;20298;-76
2021/03/18 12:50:40;;;;;;;;;;;;;;;5.64;73.76;101275.86;1675540;84;20382;-77
2021/03/18 12:53:26;;;;;;;;;;;;;;;5.66;73.73;101269.46;1674776;84;20345;-76
2021/03/18 12:56:11;;;;;;;;;;;;;;;5.60;73.60;101277.93;1673817;84;20286;-76
2021/03/18 12:58:56;;;;;;;;;;;;;;;5.50;73.34;101273.50;1675482;84;20330;-76
2021/03/18 13:01:40;;;;;;;;;;;;;;;5.49;73.60;101269.62;1642687;85;20325;-74
2021/03/18 13:04:25;;;;;;;;;;;;;;;5.52;73.61;101267.11;1665046;84;20285;-76
2021/03/18 13:07:09;;;;;;;;;;;;;;;5.54;73.57;101257.31;1672144;84;20311;-76
2021/03/18 13:09:54;;;;;;;;;;;;;;;5.57;73.54;101248.38;1643135;86;20338;-76
2021/03/18 13:12:39;;;;;;;;;;;;;;;5.58;73.53;101247.97;1647956;85;20287;-76
2021/03/18 13:15:23;;;;;;;;;;;;;;;5.59;73.57;101244.14;1671323;84;20502;-76
2021/03/18 13:18:09;;;;;;;;;;;;;;;5.60;73.52;101242.44;1673960;84;20295;-76
2021/03/18 13:20:53;;;;;;;;;;;;;;;5.65;73.60;101236.95;1673911;84;20262;-78
2021/03/18 13:23:38;;;;;;;;;;;;;;;5.69;73.36;101237.86;1676418;84;20171;-78
2021/03/18 13:26:22;;;;;;;;;;;;;;;5.70;73.30;101230.18;1645891;86;20278;-78
2021/03/18 13:29:06;;;;;;;;;;;;;;;5.75;73.50;101227.64;1644260;85;20292;-78
2021/03/18 13:31:51;;;;;;;;;;;;;;;5.83;73.55;101223.06;1674712;84;20295;-76
2021/03/18 13:34:36;;;;;;;;;;;;;;;5.96;73.62;101221.13;1674959;84;20395;-77
2021/03/18 13:37:20;;;;;;;;;;;;;;;6.08;73.50;101220.41;1638948;86;21026;-77
2021/03/18 13:40:06;;;;;;;;;;;;;;;6.15;73.52;101214.93;1642727;86;20301;-77
2021/03/18 13:42:50;;;;;;;;;;;;;;;6.23;73.46;101222.30;1642780;86;20334;-77
2021/03/18 13:45:37;;;;;;;;;;;;;;;6.25;73.26;101212.87;1675709;84;20323;-77
2021/03/18 13:48:22;;;;;;;;;;;;;;;6.23;73.15;101205.19;1667433;84;20304;-77
2021/03/18 13:51:07;;;;;;;;;;;;;;;6.17;73.11;101208.97;1673717;84;21126;-77
2021/03/18 13:53:51;;;;;;;;;;;;;;;6.14;73.06;101208.07;1675309;84;21104;-77
2021/03/18 13:56:36;;;;;;;;;;;;;;;5.95;72.49;101195.44;1644799;85;20331;-77
2021/03/18 13:59:21;;;;;;;;;;;;;;;5.80;72.92;101193.92;1675991;84;20309;-77
2021/03/18 14:02:06;;;;;;;;;;;;;;;5.77;73.02;101193.47;1673653;84;20306;-77
2021/03/18 14:04:50;;;;;;;;;;;;;;;5.75;72.97;101190.02;1670091;84;20300;-77
2021/03/18 14:07:35;;;;;;;;;;;;;;;5.73;72.85;101190.42;1675922;84;20545;-79
2021/03/18 14:10:21;;;;;;;;;;;;;;;5.67;72.78;101186.94;1668573;84;20294;-79
2021/03/18 14:13:11;;;;;;;;;;;;;;;5.62;72.91;101189.02;1668297;84;20306;-79
2021/03/18 14:15:55;;;;;;;;;;;;;;;5.60;72.90;101184.72;1642419;85;20684;-79
2021/03/18 14:18:39;;;;;;;;;;;;;;;5.58;72.86;101179.56;1670805;84;20547;-79
2021/03/18 14:21:24;;;;;;;;;;;;;;;5.57;72.93;101177.84;1668061;84;20315;-79
2021/03/18 14:24:09;;;;;;;;;;;;;;;5.53;72.84;101176.49;1669388;85;20295;-79
2021/03/18 14:29:35;;;;;;;;;;;;;;;5.61;72.83;101167.20;1827985;77;20334;-79